Time;durP1;ratioP1;P1;durP2;ratioP2;P2;SDS_P1;SDS_P2;PMS_P1;PMS_P2;Temp;Humidity;BMP_temperature;BMP_pressure;BME280_temperature;BME280_humidity;BME280_pressure;Samples;Min_cycle;Max_cycle;Signal;HPM_P1;HPM_P2
2021/04/11 00:01:00;;;;;;;56.00;31.12;;;;;;;1.57;67.76;95145.41;1764561;81;21138;-56
2021/04/11 00:03:28;;;;;;;70.87;35.43;;;;;;;1.52;68.15;95147.70;1764511;80;21365;-57
2021/04/11 00:05:58;;;;;;;83.12;38.42;;;;;;;1.55;68.44;95150.44;1764547;81;21219;-57
2021/04/11 00:08:26;;;;;;;78.67;40.38;;;;;;;1.51;68.71;95148.27;1764517;81;21060;-56
2021/04/11 00:10:58;;;;;;;80.15;39.70;;;;;;;1.41;68.81;95147.64;1764519;81;21092;-56
2021/04/11 00:13:31;;;;;;;85.83;39.10;;;;;;;1.30;69.12;95154.92;1764587;81;21079;-56
2021/04/11 00:15:59;;;;;;;116.73;52.90;;;;;;;1.23;69.51;95147.33;1764081;81;21213;-56
2021/04/11 00:18:27;;;;;;;122.10;54.27;;;;;;;1.15;69.80;95149.21;1764472;80;21095;-56
2021/04/11 00:20:56;;;;;;;89.22;43.70;;;;;;;1.12;70.26;95149.97;1764543;81;21072;-56
2021/04/11 00:23:25;;;;;;;65.62;33.30;;;;;;;1.13;70.40;95152.12;1764585;80;21511;-56
2021/04/11 00:25:53;;;;;;;79.80;38.67;;;;;;;1.11;70.14;95157.14;1764552;80;21087;-56
2021/04/11 00:28:22;;;;;;;89.00;45.43;;;;;;;1.09;69.94;95162.92;1764511;81;21388;-56
2021/04/11 00:30:51;;;;;;;75.30;34.58;;;;;;;1.08;70.24;95161.36;1764449;80;21134;-56
2021/04/11 00:33:35;;;;;;;55.45;29.60;;;;;;;1.12;70.03;95159.45;1764444;80;21575;-56
2021/04/11 00:36:09;;;;;;;45.70;25.65;;;;;;;1.08;69.88;95160.58;1764563;81;21082;-56
2021/04/11 00:38:36;;;;;;;49.40;26.80;;;;;;;1.03;69.84;95160.37;1764583;81;21071;-56
2021/04/11 00:41:27;;;;;;;47.55;26.30;;;;;;;1.06;70.19;95167.73;1764494;81;21319;-56
2021/04/11 00:43:57;;;;;;;60.23;30.43;;;;;;;1.14;69.86;95165.86;1764467;81;21138;-55
2021/04/11 00:46:42;;;;;;;61.77;34.30;;;;;;;1.21;69.81;95159.13;1764504;81;21079;-55
2021/04/11 00:49:20;;;;;;;59.77;31.95;;;;;;;1.30;69.58;95166.36;1735167;81;21147;-56
2021/04/11 00:51:50;;;;;;;66.20;31.87;;;;;;;1.31;69.29;95165.20;1761137;80;21618;-55
2021/04/11 00:54:18;;;;;;;90.83;41.10;;;;;;;1.35;69.40;95168.11;1764469;80;21230;-56
2021/04/11 00:56:47;;;;;;;57.65;29.48;;;;;;;1.39;69.03;95174.91;1735771;81;21626;-55
2021/04/11 00:59:18;;;;;;;72.15;34.50;;;;;;;1.34;69.18;95171.98;1764598;80;21484;-56
2021/04/11 01:01:47;;;;;;;65.50;29.45;;;;;;;1.26;69.51;95170.39;1764653;81;21487;-55
2021/04/11 01:04:16;;;;;;;61.75;30.68;;;;;;;1.21;69.80;95166.69;1764624;81;21496;-56
2021/04/11 01:06:54;;;;;;;57.43;28.32;;;;;;;1.17;69.94;95165.86;1747714;81;21079;-56
2021/04/11 01:09:26;;;;;;;66.15;34.03;;;;;;;1.12;69.77;95162.16;1763890;80;21118;-56
2021/04/11 01:11:58;;;;;;;68.12;32.08;;;;;;;1.08;69.62;95161.36;1764455;81;21063;-56
2021/04/11 01:14:29;;;;;;;66.12;31.62;;;;;;;1.03;69.59;95167.14;1764614;81;21521;-55
2021/04/11 01:16:57;;;;;;;60.85;31.40;;;;;;;1.04;69.71;95164.63;1764516;81;21071;-56
2021/04/11 01:19:34;;;;;;;54.27;27.85;;;;;;;1.05;69.60;95163.48;1763071;81;21460;-56
2021/04/11 01:22:21;;;;;;;77.32;33.55;;;;;;;1.03;69.80;95159.02;1741121;81;21086;-56
2021/04/11 01:24:56;;;;;;;74.62;34.58;;;;;;;0.98;70.30;95157.98;1719243;81;21158;-56
2021/04/11 01:27:30;;;;;;;69.00;34.63;;;;;;;0.92;70.61;95163.56;1758438;81;21075;-56
2021/04/11 01:29:58;;;;;;;68.78;38.25;;;;;;;0.93;71.02;95169.77;1758849;81;21162;-57
2021/04/11 01:32:27;;;;;;;58.42;28.62;;;;;;;0.92;70.58;95174.40;1758841;81;21941;-56
2021/04/11 01:34:57;;;;;;;53.20;28.83;;;;;;;0.89;70.31;95180.57;1758677;81;21119;-56
2021/04/11 01:37:26;;;;;;;52.93;27.40;;;;;;;0.84;70.20;95180.92;1758787;80;21075;-56
2021/04/11 01:39:56;;;;;;;65.20;32.38;;;;;;;0.77;70.28;95177.37;1758746;81;21075;-56
2021/04/11 01:42:25;;;;;;;57.23;29.20;;;;;;;0.76;70.42;95172.52;1674045;81;21107;-57
2021/04/11 01:44:53;;;;;;;53.35;28.90;;;;;;;0.74;70.45;95182.19;1650409;81;21320;-55
2021/04/11 01:47:21;;;;;;;50.00;28.17;;;;;;;0.74;70.57;95185.66;1758763;81;21549;-56
2021/04/11 01:49:50;;;;;;;56.50;27.75;;;;;;;0.77;70.71;95175.43;1716120;81;21147;-56
2021/04/11 01:52:26;;;;;;;54.00;26.73;;;;;;;0.80;70.85;95177.39;1758855;81;21151;-56
2021/04/11 01:54:55;;;;;;;48.98;22.95;;;;;;;0.83;71.05;95179.38;1758835;80;21119;-56
2021/04/11 01:57:28;;;;;;;53.68;26.23;;;;;;;0.81;71.09;95172.77;1758779;81;21356;-56
2021/04/11 02:00:25;;;;;;;58.25;27.07;;;;;;;0.77;71.15;95174.08;1758752;81;21533;-57
2021/04/11 02:03:02;;;;;;;63.13;33.85;;;;;;;0.73;71.50;95177.34;1758809;80;21083;-56
2021/04/11 02:05:31;;;;;;;68.17;37.42;;;;;;;0.71;71.33;95176.94;1719309;81;21138;-57
2021/04/11 02:07:59;;;;;;;74.85;34.90;;;;;;;0.65;71.40;95175.73;1758820;81;21119;-56
2021/04/11 02:10:33;;;;;;;68.02;36.93;;;;;;;0.62;71.55;95176.45;1757752;81;23466;-56
2021/04/11 02:13:09;;;;;;;53.00;29.95;;;;;;;0.64;71.84;95178.24;1756606;81;21115;-56
2021/04/11 02:15:42;;;;;;;60.15;30.02;;;;;;;0.67;71.58;95176.14;1719350;81;33514;-55
2021/04/11 02:18:11;;;;;;;51.80;26.10;;;;;;;0.68;71.52;95176.33;1758814;81;21131;-56
2021/04/11 02:20:42;;;;;;;50.83;28.52;;;;;;;0.76;71.34;95167.70;1727978;81;21163;-56
2021/04/11 02:23:13;;;;;;;56.33;28.15;;;;;;;0.82;71.07;95164.27;1762068;81;21204;-56
2021/04/11 02:25:46;;;;;;;54.03;29.13;;;;;;;0.86;70.84;95166.99;1762262;81;21512;-56
2021/04/11 02:28:16;;;;;;;86.30;42.73;;;;;;;0.90;70.71;95178.06;1735247;81;26706;-56
2021/04/11 02:30:51;;;;;;;85.10;39.70;;;;;;;0.87;70.71;95172.05;1762107;80;21507;-57
2021/04/11 02:33:21;;;;;;;102.78;43.48;;;;;;;0.79;70.85;95168.30;1762048;81;21131;-57
2021/04/11 02:35:48;;;;;;;80.97;40.23;;;;;;;0.69;71.20;95166.27;1761901;81;21932;-56
2021/04/11 02:38:17;;;;;;;107.95;52.10;;;;;;;0.58;71.24;95169.48;1761934;81;21063;-56
2021/04/11 02:40:47;;;;;;;109.25;52.70;;;;;;;0.47;71.31;95176.70;1762002;80;21564;-57
2021/04/11 02:43:16;;;;;;;118.08;53.05;;;;;;;0.39;71.61;95175.86;1761682;81;21068;-56
2021/04/11 02:45:45;;;;;;;109.05;55.25;;;;;;;0.34;71.99;95170.80;1761996;81;21067;-57
2021/04/11 02:48:15;;;;;;;106.87;47.35;;;;;;;0.36;72.18;95175.81;1762019;81;21199;-56
2021/04/11 02:50:46;;;;;;;103.60;47.83;;;;;;;0.36;72.35;95169.84;1761369;80;21114;-55
2021/04/11 02:53:24;;;;;;;92.78;42.40;;;;;;;0.43;72.29;95172.61;1761997;81;21080;-56
2021/04/11 02:55:54;;;;;;;67.08;32.08;;;;;;;0.53;72.38;95178.70;1762084;81;21504;-55
2021/04/11 02:58:23;;;;;;;71.07;34.43;;;;;;;0.60;71.62;95173.34;1762050;81;21096;-56
2021/04/11 03:01:10;;;;;;;58.55;29.77;;;;;;;0.56;71.32;95173.14;1762031;81;21197;-56
2021/04/11 03:03:38;;;;;;;71.77;36.35;;;;;;;0.53;71.36;95167.88;1735072;81;21099;-58
2021/04/11 03:06:12;;;;;;;93.97;40.30;;;;;;;0.54;71.29;95170.79;1762012;81;21092;-56
2021/04/11 03:08:42;;;;;;;101.42;47.48;;;;;;;0.55;71.21;95172.34;1734912;81;21135;-56
2021/04/11 03:11:17;;;;;;;103.75;51.53;;;;;;;0.54;71.05;95169.44;1762118;81;21116;-56
2021/04/11 03:13:45;;;;;;;103.15;51.02;;;;;;;0.47;71.18;95174.80;1761952;81;21104;-57
2021/04/11 03:16:15;;;;;;;89.35;43.02;;;;;;;0.42;71.27;95169.70;1762012;80;21142;-56
2021/04/11 03:18:43;;;;;;;84.67;39.50;;;;;;;0.43;71.20;95174.55;1762138;80;21071;-56
2021/04/11 03:21:12;;;;;;;79.62;37.45;;;;;;;0.43;71.29;95178.02;1734899;81;21136;-56
2021/04/11 03:23:40;;;;;;;94.47;46.30;;;;;;;0.51;71.47;95174.25;1762156;81;21119;-57
2021/04/11 03:26:26;;;;;;;95.90;47.43;;;;;;;0.43;71.38;95175.31;1757998;81;21433;-57
2021/04/11 03:29:05;;;;;;;94.85;47.62;;;;;;;0.36;71.75;95187.43;1762103;81;21095;-57
2021/04/11 03:31:42;;;;;;;99.62;50.33;;;;;;;0.31;71.66;95183.72;1762161;80;21068;-56
2021/04/11 03:34:10;;;;;;;110.80;57.10;;;;;;;0.26;71.98;95190.80;1735035;81;21170;-57
2021/04/11 03:36:40;;;;;;;90.10;45.70;;;;;;;0.29;71.93;95190.08;1734885;81;21138;-57
2021/04/11 03:39:10;;;;;;;82.55;43.05;;;;;;;0.25;71.61;95184.42;1735508;81;21193;-56
2021/04/11 03:41:38;;;;;;;77.60;40.45;;;;;;;0.23;71.91;95190.19;1762082;81;21198;-56
2021/04/11 03:44:19;;;;;;;100.15;43.17;;;;;;;0.23;72.03;95188.83;1762149;80;21521;-56
2021/04/11 03:47:09;;;;;;;84.25;45.38;;;;;;;0.21;72.13;95189.78;1762060;81;21229;-58
2021/04/11 03:49:52;;;;;;;87.73;43.60;;;;;;;0.24;72.57;95194.45;1761859;80;21575;-57
2021/04/11 03:52:28;;;;;;;83.22;41.92;;;;;;;0.29;72.15;95203.61;1762142;80;21191;-56
2021/04/11 03:54:56;;;;;;;65.28;33.13;;;;;;;0.25;71.99;95208.17;1734870;81;21099;-57
2021/04/11 03:57:28;;;;;;;77.60;36.93;;;;;;;0.23;71.89;95209.13;1747231;81;21092;-56
2021/04/11 04:00:13;;;;;;;78.92;38.88;;;;;;;0.24;71.75;95206.63;1761687;81;21095;-56
2021/04/11 04:02:46;;;;;;;100.10;49.65;;;;;;;0.23;71.68;95206.41;1761691;81;21106;-56
2021/04/11 04:05:21;;;;;;;93.90;44.18;;;;;;;0.15;71.91;95210.77;1761067;81;21206;-57
2021/04/11 04:07:55;;;;;;;93.35;46.80;;;;;;;0.09;72.22;95217.10;1747318;81;21170;-58
2021/04/11 04:10:33;;;;;;;98.78;43.50;;;;;;;0.08;72.40;95212.81;1762113;81;21103;-57
2021/04/11 04:13:33;;;;;;;84.05;43.28;;;;;;;0.18;72.76;95205.41;1890085;76;22195;-57
2021/04/11 04:16:15;;;;;;;97.55;41.65;;;;;;;0.21;72.69;95214.72;1860973;77;21105;-56
2021/04/11 04:19:16;;;;;;;103.83;48.63;;;;;;;0.23;72.54;95211.83;1859433;77;21509;-58
2021/04/11 04:22:08;;;;;;;96.78;44.60;;;;;;;0.23;72.60;95213.77;1860883;77;21076;-57
2021/04/11 04:24:44;;;;;;;92.33;41.08;;;;;;;0.24;72.68;95214.73;1858654;77;21072;-56
2021/04/11 04:27:39;;;;;;;90.10;44.05;;;;;;;0.25;72.71;95218.23;1860955;77;21057;-56
2021/04/11 04:30:25;;;;;;;88.85;44.40;;;;;;;0.23;72.84;95225.94;1820860;77;21040;-57
2021/04/11 04:33:22;;;;;;;92.35;42.10;;;;;;;0.25;72.99;95217.64;1860721;77;21367;-56
2021/04/11 04:36:11;;;;;;;92.72;40.05;;;;;;;0.32;73.06;95221.00;1873594;76;21128;-57
2021/04/11 04:39:05;;;;;;;123.18;43.68;;;;;;;0.41;73.14;95224.20;1806881;79;20957;-57
2021/04/11 04:41:47;;;;;;;89.35;39.23;;;;;;;0.53;73.02;95229.34;1822997;78;21147;-57
2021/04/11 04:44:41;;;;;;;92.30;42.95;;;;;;;0.61;72.82;95227.69;1807206;79;21064;-57
2021/04/11 04:47:22;;;;;;;86.95;44.53;;;;;;;0.68;72.83;95223.71;1820648;78;21209;-57
2021/04/11 04:50:19;;;;;;;93.07;42.65;;;;;;;0.86;73.06;95222.50;1821326;78;21210;-57
2021/04/11 04:53:14;;;;;;;81.12;40.83;;;;;;;1.07;72.41;95230.24;1822762;78;21575;-56
2021/04/11 04:55:47;;;;;;;79.53;43.13;;;;;;;1.10;71.91;95221.36;1783973;78;21126;-57
2021/04/11 04:58:26;;;;;;;83.75;41.02;;;;;;;1.08;71.71;95218.25;1807080;79;21138;-57
2021/04/11 05:01:22;;;;;;;71.35;36.98;;;;;;;1.07;71.81;95214.55;1822817;78;21269;-58
2021/04/11 05:04:01;;;;;;;74.05;40.88;;;;;;;1.10;71.74;95221.36;1821857;78;21198;-56
2021/04/11 05:06:35;;;;;;;64.60;34.65;;;;;;;1.16;71.84;95219.85;1807063;79;21155;-56
2021/04/11 05:09:16;;;;;;;75.55;36.85;;;;;;;1.26;71.56;95213.74;1821632;78;21512;-58
2021/04/11 05:12:02;;;;;;;69.37;37.58;;;;;;;1.28;71.43;95219.56;1776303;79;21051;-56
2021/04/11 05:14:42;;;;;;;63.98;33.73;;;;;;;1.37;71.53;95220.03;1889985;75;22618;-56
2021/04/11 05:17:33;;;;;;;57.23;32.08;;;;;;;1.41;71.39;95223.53;1860966;77;21545;-57
2021/04/11 05:20:09;;;;;;;49.35;27.62;;;;;;;1.50;71.14;95222.61;1861188;77;20998;-56
2021/04/11 05:22:51;;;;;;;53.38;29.50;;;;;;;1.61;70.98;95227.53;1859334;77;21057;-56
2021/04/11 05:25:29;;;;;;;55.73;32.03;;;;;;;1.73;70.79;95224.48;1860369;77;20953;-56
2021/04/11 05:28:19;;;;;;;57.38;32.13;;;;;;;1.81;70.65;95221.44;1860953;77;21045;-58
2021/04/11 05:30:56;;;;;;;80.03;37.55;;;;;;;1.93;70.51;95224.42;1860988;77;20927;-56
2021/04/11 05:33:24;;;;;;;73.60;35.10;;;;;;;2.11;70.59;95221.22;1860872;77;21261;-57
2021/04/11 05:36:10;;;;;;;62.48;34.90;;;;;;;2.35;70.30;95224.59;1840021;77;20974;-56
2021/04/11 05:39:17;;;;;;;62.83;33.38;;;;;;;2.61;69.65;95221.55;1827219;78;21040;-57
2021/04/11 05:42:06;;;;;;;50.15;29.80;;;;;;;2.73;68.79;95220.59;1827222;78;21088;-56
2021/04/11 05:45:09;;;;;;;45.60;25.27;;;;;;;2.81;68.32;95218.11;1827199;78;21502;-60
2021/04/11 05:48:15;;;;;;;37.55;22.70;;;;;;;2.80;67.66;95221.98;1827340;78;21191;-57
2021/04/11 05:51:22;;;;;;;36.68;21.75;;;;;;;2.84;67.47;95222.00;1827202;78;21600;-58
2021/04/11 05:54:03;;;;;;;45.08;23.83;;;;;;;2.93;67.36;95215.59;1827091;78;21144;-56
2021/04/11 05:56:45;;;;;;;48.30;28.73;;;;;;;3.02;67.45;95211.93;1827117;78;21152;-57
2021/04/11 05:59:27;;;;;;;45.88;26.62;;;;;;;3.11;67.18;95223.17;1826543;78;21131;-60
2021/04/11 06:01:59;;;;;;;45.15;26.82;;;;;;;3.19;67.16;95215.20;1822348;78;21217;-57
2021/04/11 06:04:48;;;;;;;46.37;27.05;;;;;;;3.27;66.93;95215.42;1827353;78;21108;-58
2021/04/11 06:07:23;;;;;;;33.10;22.82;;;;;;;3.39;66.90;95213.08;1827186;78;21105;-57
2021/04/11 06:10:03;;;;;;;25.75;18.67;;;;;;;3.53;66.37;95211.70;1873603;76;22794;-57
2021/04/11 06:12:59;;;;;;;25.15;16.00;;;;;;;3.58;65.96;95202.57;1841694;78;21164;-56
2021/04/11 06:15:34;;;;;;;19.77;13.55;;;;;;;3.76;65.46;95211.48;1841686;78;22092;-55
2021/04/11 06:18:07;;;;;;;26.45;14.65;;;;;;;3.93;64.94;95201.13;1841514;77;21112;-58
2021/04/11 06:20:37;;;;;;;21.45;13.40;;;;;;;4.14;64.52;95198.34;1841775;77;21482;-56
2021/04/11 06:23:13;;;;;;;20.65;13.68;;;;;;;4.31;63.90;95194.77;1841546;77;21105;-59
2021/04/11 06:26:21;;;;;;;25.60;14.90;;;;;;;4.46;63.49;95190.02;1841593;77;21022;-58
2021/04/11 06:29:04;;;;;;;15.68;11.48;;;;;;;4.59;62.59;95185.07;1841529;77;21397;-56
2021/04/11 06:31:48;;;;;;;19.95;11.20;;;;;;;4.77;61.71;95186.34;1841459;78;20999;-56
2021/04/11 06:34:28;;;;;;;16.45;12.20;;;;;;;4.89;61.46;95183.13;1841587;78;21076;-57
2021/04/11 06:37:00;;;;;;;17.10;12.05;;;;;;;5.09;60.87;95190.39;1806123;79;21092;-57
2021/04/11 06:39:33;;;;;;;12.43;10.43;;;;;;;5.28;60.29;95175.61;1808671;79;21081;-58
2021/04/11 06:42:21;;;;;;;21.48;12.65;;;;;;;5.51;59.67;95177.75;1807803;79;21428;-56
2021/04/11 06:45:09;;;;;;;24.47;14.03;;;;;;;5.76;59.11;95181.03;1808407;79;21081;-58
2021/04/11 06:48:15;;;;;;;18.60;12.55;;;;;;;6.01;58.49;95172.77;1808449;79;21058;-60
2021/04/11 06:50:52;;;;;;;16.02;12.03;;;;;;;6.27;58.36;95176.77;1808473;79;21162;-58
2021/04/11 06:54:06;;;;;;;14.33;10.63;;;;;;;6.52;57.31;95174.51;1808517;78;21077;-56
2021/04/11 06:56:58;;;;;;;20.08;11.63;;;;;;;6.71;56.51;95173.25;1808386;79;21350;-61
2021/04/11 07:00:06;;;;;;;39.18;14.15;;;;;;;6.83;55.56;95167.23;1753825;80;21118;-58
2021/04/11 07:03:15;;;;;;;16.37;12.47;;;;;;;6.89;55.51;95163.45;1806775;79;21141;-58
2021/04/11 07:05:54;;;;;;;42.85;14.28;;;;;;;7.05;55.31;95166.33;1808475;79;21133;-57
2021/04/11 07:08:38;;;;;;;20.85;11.68;;;;;;;7.18;54.92;95163.35;1806658;78;21160;-58
2021/04/11 07:11:45;;;;;;;27.17;13.88;;;;;;;7.35;54.67;95157.44;1800508;79;21117;-57
2021/04/11 07:15:14;;;;;;;23.12;14.20;;;;;;;7.51;54.31;95154.81;1800483;79;21140;-58
2021/04/11 07:18:19;;;;;;;21.20;14.05;;;;;;;7.66;53.81;95155.52;1800542;79;21187;-62
2021/04/11 07:21:39;;;;;;;22.25;15.15;;;;;;;7.75;53.28;95157.12;1800060;79;21069;-58
2021/04/11 07:24:22;;;;;;;18.17;13.35;;;;;;;7.91;53.14;95154.45;1800009;79;21128;-58
2021/04/11 07:27:17;;;;;;;23.02;13.32;;;;;;;8.14;52.38;95150.31;1751211;79;21368;-58
2021/04/11 07:30:10;;;;;;;27.17;12.60;;;;;;;8.35;51.88;95148.55;1799856;79;21080;-57
2021/04/11 07:33:22;;;;;;;17.70;12.05;;;;;;;8.59;51.20;95148.61;1800083;79;21066;-58
2021/04/11 07:36:12;;;;;;;16.23;10.48;;;;;;;8.77;50.34;95146.26;1799866;79;21053;-58
2021/04/11 07:39:11;;;;;;;21.95;10.85;;;;;;;9.04;49.27;95145.47;1799970;78;21112;-57
2021/04/11 07:41:51;;;;;;;19.15;10.72;;;;;;;9.21;48.45;95140.16;1799977;78;21375;-57
2021/04/11 07:44:43;;;;;;;16.42;10.98;;;;;;;9.35;48.13;95136.47;1799895;79;21095;-58
2021/04/11 07:48:03;;;;;;;21.00;11.20;;;;;;;9.52;47.79;95130.34;1799838;79;21163;-59
2021/04/11 07:51:07;;;;;;;16.05;10.35;;;;;;;9.72;48.08;95132.38;1799908;79;21163;-56
2021/04/11 07:54:14;;;;;;;15.32;10.35;;;;;;;9.97;47.45;95129.77;1799951;79;21100;-57
2021/04/11 07:57:04;;;;;;;20.48;9.88;;;;;;;10.20;46.83;95113.05;1799934;79;21193;-58
2021/04/11 08:00:15;;;;;;;19.07;10.40;;;;;;;10.42;46.93;95124.98;1799879;79;21123;-58
2021/04/11 08:03:23;;;;;;;21.35;9.03;;;;;;;10.58;46.17;95119.41;1799984;79;21145;-57
2021/04/11 08:06:15;;;;;;;13.45;8.13;;;;;;;10.73;45.65;95113.83;1799822;79;21164;-57
2021/04/11 08:09:09;;;;;;;15.53;9.40;;;;;;;10.87;45.29;95115.37;1783770;79;21112;-58
2021/04/11 08:12:26;;;;;;;15.18;9.05;;;;;;;10.98;44.84;95104.81;1797186;78;22282;-58
2021/04/11 08:15:20;;;;;;;12.33;9.35;;;;;;;11.13;45.00;95102.55;1797008;79;21126;-58
2021/04/11 08:18:19;;;;;;;12.00;8.70;;;;;;;11.38;44.54;95105.88;1779601;79;21057;-58
2021/04/11 08:21:29;;;;;;;16.65;9.73;;;;;;;11.55;44.01;95099.02;1797099;79;21735;-57
2021/04/11 08:24:29;;;;;;;19.48;9.20;;;;;;;11.68;44.06;95103.30;1749008;82;21129;-60
2021/04/11 08:27:48;;;;;;;18.52;9.65;;;;;;;11.90;44.05;95094.47;1792469;79;21212;-56
2021/04/11 08:30:53;;;;;;;13.43;8.20;;;;;;;12.16;43.51;95097.89;1796976;79;21074;-60
2021/04/11 08:33:56;;;;;;;15.88;8.10;;;;;;;12.43;43.42;95089.20;1797017;79;21132;-60
2021/04/11 08:36:58;;;;;;;13.35;7.80;;;;;;;12.73;43.90;95091.98;1796329;79;21101;-58
2021/04/11 08:39:37;;;;;;;12.40;8.03;;;;;;;13.03;44.11;95089.86;1797111;79;21065;-57
2021/04/11 08:42:47;;;;;;;17.85;8.53;;;;;;;13.30;43.52;95089.19;1797134;78;21500;-60
2021/04/11 08:45:36;;;;;;;11.38;8.15;;;;;;;13.53;42.68;95083.88;1797015;78;21140;-59
2021/04/11 08:48:22;;;;;;;11.50;7.97;;;;;;;13.80;41.86;95075.62;1797055;79;21108;-57
2021/04/11 08:51:16;;;;;;;10.78;7.30;;;;;;;14.08;40.80;95073.62;1797082;79;21078;-58
2021/04/11 08:54:11;;;;;;;11.53;6.97;;;;;;;14.31;41.55;95074.41;1797073;79;21060;-58
2021/04/11 08:57:20;;;;;;;12.82;7.47;;;;;;;14.51;40.16;95062.41;1797117;79;21338;-60
2021/04/11 09:00:19;;;;;;;12.60;8.33;;;;;;;14.74;39.68;95070.04;1797008;78;21168;-62
2021/04/11 09:03:24;;;;;;;11.88;6.35;;;;;;;14.98;39.08;95063.20;1797094;79;21065;-61
2021/04/11 09:06:24;;;;;;;13.65;6.42;;;;;;;15.18;37.71;95059.27;1796965;78;21158;-59
2021/04/11 09:09:51;;;;;;;9.58;6.17;;;;;;;15.38;37.76;95054.70;1796724;79;21175;-59
2021/04/11 09:12:46;;;;;;;10.32;6.60;;;;;;;15.64;37.73;95045.31;1813487;78;21195;-60
2021/04/11 09:16:06;;;;;;;7.97;5.92;;;;;;;15.88;36.87;95043.31;1813474;79;21572;-58
2021/04/11 09:19:08;;;;;;;13.25;6.30;;;;;;;16.07;35.85;95037.77;1813416;79;21049;-58
2021/04/11 09:21:59;;;;;;;11.85;6.62;;;;;;;16.28;35.93;95035.27;1813576;78;21498;-57
2021/04/11 09:24:38;;;;;;;8.98;5.45;;;;;;;16.46;35.27;95035.88;1813567;79;21546;-61
2021/04/11 09:27:39;;;;;;;8.18;5.42;;;;;;;16.56;34.75;95024.20;1813494;79;21181;-61
2021/04/11 09:30:44;;;;;;;6.15;4.40;;;;;;;16.69;35.13;95029.48;1794924;79;21097;-59
2021/04/11 09:34:08;;;;;;;6.70;4.83;;;;;;;16.86;33.81;95025.73;1813404;79;21227;-58
2021/04/11 09:36:49;;;;;;;7.10;4.95;;;;;;;17.03;33.29;95023.98;1813487;79;21065;-58
2021/04/11 09:39:42;;;;;;;10.80;5.58;;;;;;;17.25;32.82;95021.53;1813473;79;21085;-57
2021/04/11 09:42:43;;;;;;;8.93;6.30;;;;;;;17.46;32.19;95016.81;1813464;79;21242;-56
2021/04/11 09:45:39;;;;;;;6.47;4.10;;;;;;;17.65;31.59;95014.66;1813396;78;21141;-60
2021/04/11 09:48:47;;;;;;;7.60;5.05;;;;;;;17.90;32.10;95006.25;1813410;79;21478;-58
2021/04/11 09:51:44;;;;;;;9.75;5.17;;;;;;;18.12;32.68;95008.68;1813434;79;21089;-57
2021/04/11 09:54:20;;;;;;;10.30;5.90;;;;;;;18.42;31.54;95006.63;1813446;78;21620;-58
2021/04/11 09:57:22;;;;;;;7.67;4.97;;;;;;;18.75;31.47;95013.14;1813461;79;21184;-56
2021/04/11 10:00:31;;;;;;;7.03;5.10;;;;;;;19.00;31.28;95009.57;1813615;79;21093;-57
2021/04/11 10:03:10;;;;;;;12.00;7.97;;;;;;;19.30;30.07;95007.41;1813421;78;21089;-57
2021/04/11 10:05:59;;;;;;;8.63;5.92;;;;;;;19.58;28.95;94994.37;1813463;79;21089;-57
2021/04/11 10:09:18;;;;;;;7.72;4.45;;;;;;;19.75;29.99;94996.62;1821162;78;21054;-57
2021/04/11 10:12:11;;;;;;;24.82;6.35;;;;;;;20.05;28.70;94990.83;1813434;79;21085;-57
2021/04/11 10:15:01;;;;;;;7.58;4.25;;;;;;;20.39;26.57;94989.67;1813553;79;21084;-57
2021/04/11 10:18:22;;;;;;;9.18;4.97;;;;;;;20.64;28.06;94990.09;1813466;79;21073;-58
2021/04/11 10:21:17;;;;;;;8.10;4.90;;;;;;;21.04;27.46;94988.23;1813378;79;21101;-57
2021/04/11 10:24:16;;;;;;;8.43;4.42;;;;;;;21.52;24.43;94983.88;1813452;79;21093;-58
2021/04/11 10:26:52;;;;;;;8.40;5.60;;;;;;;21.74;24.21;94978.24;1813436;79;21338;-59
2021/04/11 10:29:23;;;;;;;10.28;4.20;;;;;;;22.05;23.62;94978.63;1813302;79;21141;-58
2021/04/11 10:32:08;;;;;;;9.33;4.45;;;;;;;22.32;23.80;94981.93;1813515;79;21500;-59
2021/04/11 10:34:44;;;;;;;8.43;4.10;;;;;;;22.58;22.38;94987.95;1813368;79;21065;-56
2021/04/11 10:37:42;;;;;;;7.83;4.15;;;;;;;22.76;22.97;94975.32;1813438;78;21157;-60
2021/04/11 10:40:35;;;;;;;10.68;3.60;;;;;;;23.16;24.26;94968.28;1813397;79;21363;-59
2021/04/11 10:43:32;;;;;;;5.67;4.03;;;;;;;23.81;23.05;94967.52;1813473;79;21136;-58
2021/04/11 10:46:12;;;;;;;23.25;4.97;;;;;;;24.32;22.14;94959.36;1813449;78;20998;-58
2021/04/11 10:49:22;;;;;;;4.58;3.95;;;;;;;24.59;21.42;94959.66;1813048;79;21105;-57
2021/04/11 10:52:20;;;;;;;5.90;3.47;;;;;;;24.77;21.33;94957.48;1813398;79;21084;-59
2021/04/11 10:55:04;;;;;;;7.37;3.10;;;;;;;25.02;20.15;94965.27;1813452;79;21485;-59
2021/04/11 10:58:04;;;;;;;;;;;;;;;25.18;20.04;94958.64;1816309;79;21112;-58
2021/04/11 11:00:49;;;;;;;8.70;3.20;;;;;;;25.47;20.21;94949.83;1813520;79;20232;-59
2021/04/11 11:03:35;;;;;;;6.03;3.65;;;;;;;25.85;20.10;94952.59;1813156;79;21080;-58
2021/04/11 11:06:37;;;;;;;16.23;3.85;;;;;;;26.22;19.36;94949.66;1813577;79;21096;-61
2021/04/11 11:09:20;;;;;;;5.30;3.15;;;;;;;26.52;18.18;94947.22;1813580;79;21356;-62
2021/04/11 11:12:06;;;;;;;;;;;;;;;26.67;19.04;94943.83;1783650;79;21501;-58
2021/04/11 11:15:05;;;;;;;18.52;5.05;;;;;;;26.99;18.34;94929.58;1813604;78;20224;-58
2021/04/11 11:18:06;;;;;;;9.80;6.53;;;;;;;27.21;17.73;94937.53;1813528;79;21557;-58
2021/04/11 11:21:00;;;;;;;4.28;2.87;;;;;;;27.42;18.60;94938.28;1813778;78;21117;-59
2021/04/11 11:24:09;;;;;;;7.42;2.90;;;;;;;27.77;17.44;94938.31;1813454;78;22417;-59
2021/04/11 11:27:06;;;;;;;4.00;2.33;;;;;;;27.86;16.76;94932.13;1824083;77;21130;-59
2021/04/11 11:30:24;;;;;;;8.10;3.35;;;;;;;27.96;17.42;94930.42;1814517;78;21152;-59
2021/04/11 11:33:14;;;;;;;4.67;2.58;;;;;;;28.22;16.65;94922.36;1813482;79;21188;-59
2021/04/11 11:36:03;;;;;;;4.05;3.22;;;;;;;28.43;17.13;94924.47;1813452;79;21112;-58
2021/04/11 11:39:06;;;;;;;9.83;3.87;;;;;;;28.66;15.48;94923.24;1873480;76;22756;-58
2021/04/11 11:41:41;;;;;;;10.35;3.52;;;;;;;28.35;15.50;94915.17;1819337;78;21081;-60
2021/04/11 11:44:32;;;;;;;12.45;4.50;;;;;;;27.99;15.78;94913.75;1838695;78;21187;-58
2021/04/11 11:47:27;;;;;;;8.80;4.10;;;;;;;27.80;15.75;94905.41;1841206;77;21204;-61
2021/04/11 11:50:03;;;;;;;7.97;3.67;;;;;;;27.73;16.69;94901.89;1841488;78;21038;-59
2021/04/11 11:52:49;;;;;;;10.13;3.90;;;;;;;27.92;16.57;94893.90;1841469;77;20955;-58
2021/04/11 11:55:28;;;;;;;14.43;3.35;;;;;;;28.21;15.63;94889.72;1841543;78;21029;-60
2021/04/11 11:58:22;;;;;;;5.70;3.00;;;;;;;28.35;15.67;94891.11;1841465;78;23487;-59
2021/04/11 12:01:06;;;;;;;5.65;2.98;;;;;;;28.32;15.41;94882.33;1841358;78;21195;-59
2021/04/11 12:03:36;;;;;;;5.20;2.75;;;;;;;28.67;16.59;94884.34;1841503;77;20979;-60
2021/04/11 12:06:32;;;;;;;6.47;4.10;;;;;;;29.22;14.66;94877.66;1841590;78;21072;-59
2021/04/11 12:09:25;;;;;;;15.70;4.28;;;;;;;29.52;14.53;94872.67;1841556;78;21073;-60
2021/04/11 12:12:04;;;;;;;9.33;4.37;;;;;;;29.70;15.87;94871.52;1841501;78;21405;-60
2021/04/11 12:14:59;;;;;;;8.13;4.00;;;;;;;30.15;14.87;94872.19;1841459;78;21113;-59
2021/04/11 12:17:34;;;;;;;9.63;3.10;;;;;;;30.34;15.20;94861.88;1841373;78;21053;-59
2021/04/11 12:20:25;;;;;;;6.03;2.67;;;;;;;30.56;14.87;94862.46;1841448;78;21061;-59
2021/04/11 12:23:03;;;;;;;;;;;;;;;30.82;13.83;94853.43;1842876;78;21558;-59
2021/04/11 12:25:34;;;;;;;6.10;3.52;;;;;;;31.01;14.27;94858.63;1841534;77;21433;-61
2021/04/11 12:28:23;;;;;;;6.53;3.55;;;;;;;31.28;14.86;94857.50;1841455;78;21537;-58
2021/04/11 12:30:53;;;;;;;3.58;2.67;;;;;;;31.35;14.58;94858.75;1841478;78;21132;-62
2021/04/11 12:33:32;;;;;;;5.95;2.72;;;;;;;31.42;13.95;94853.00;1841464;77;21557;-62
2021/04/11 12:36:11;;;;;;;4.67;2.40;;;;;;;31.48;14.11;94842.16;1820933;77;21152;-60
2021/04/11 12:38:45;;;;;;;6.08;2.75;;;;;;;31.78;13.51;94843.30;1813255;78;21529;-60
2021/04/11 12:41:24;;;;;;;9.85;2.52;;;;;;;31.67;12.77;94843.81;1814177;79;21596;-63
2021/04/11 12:44:23;;;;;;;7.57;2.60;;;;;;;31.16;13.07;94826.59;1814385;79;21548;-59
2021/04/11 12:47:03;;;;;;;6.97;3.17;;;;;;;31.00;13.81;94820.91;1814066;79;21228;-59
2021/04/11 12:49:55;;;;;;;4.10;2.30;;;;;;;31.31;15.03;94822.20;1813561;79;21144;-59